createdAt,value
2017-09-03T00:01:17.789Z,6.20
2017-09-03T00:03:44.381Z,6.50
2017-09-03T00:06:10.982Z,6.67
2017-09-03T00:08:37.589Z,6.07
2017-09-03T00:11:04.182Z,6.00
2017-09-03T00:13:30.766Z,6.10
2017-09-03T00:15:57.342Z,5.87
2017-09-03T00:18:23.934Z,6.33
2017-09-03T00:20:50.510Z,5.80
2017-09-03T00:23:17.098Z,5.80
2017-09-03T00:25:43.679Z,5.83
2017-09-03T00:28:10.267Z,5.80
2017-09-03T00:30:36.862Z,6.17
2017-09-03T00:33:03.437Z,6.00
2017-09-03T00:35:30.030Z,6.50
2017-09-03T00:37:56.611Z,6.10
2017-09-03T00:40:23.202Z,5.87
2017-09-03T00:42:49.790Z,6.40
2017-09-03T00:45:16.420Z,5.60
2017-09-03T00:47:42.998Z,5.90
2017-09-03T00:50:09.578Z,5.80
2017-09-03T00:52:36.163Z,6.03
2017-09-03T00:55:02.747Z,5.63
2017-09-03T00:57:29.337Z,6.20
2017-09-03T00:59:55.912Z,6.50
2017-09-03T01:02:22.487Z,6.07
2017-09-03T01:04:49.087Z,6.30
2017-09-03T01:07:15.666Z,6.03
2017-09-03T01:09:42.253Z,5.87
2017-09-03T01:12:08.837Z,6.63
2017-09-03T01:14:35.434Z,6.30
2017-09-03T01:17:02.016Z,6.10
2017-09-03T01:19:28.590Z,6.33
2017-09-03T01:21:55.228Z,5.70
2017-09-03T01:24:21.822Z,5.90
2017-09-03T01:26:48.398Z,5.60
2017-09-03T01:29:14.982Z,6.23
2017-09-03T01:31:41.609Z,6.47
2017-09-03T01:34:08.182Z,6.13
2017-09-03T01:36:34.766Z,6.20
2017-09-03T01:39:01.346Z,6.20
2017-09-03T01:41:27.939Z,6.10
2017-09-03T01:43:54.522Z,6.47
2017-09-03T01:46:21.112Z,6.03
2017-09-03T01:48:47.698Z,5.87
2017-09-03T01:51:14.287Z,6.53
2017-09-03T01:53:40.873Z,6.40
2017-09-03T01:56:07.486Z,6.53
2017-09-03T01:58:34.066Z,6.30
2017-09-03T02:01:00.655Z,6.67
2017-09-03T02:03:27.239Z,6.33
2017-09-03T02:05:53.825Z,6.97
2017-09-03T02:08:20.417Z,6.87
2017-09-03T02:10:47.026Z,6.50
2017-09-03T02:13:13.599Z,7.00
2017-09-03T02:15:40.181Z,6.17
2017-09-03T02:18:06.773Z,6.70
2017-09-03T02:20:33.362Z,6.20
2017-09-03T02:22:59.942Z,7.30
2017-09-03T02:25:26.531Z,7.50
2017-09-03T02:27:53.110Z,7.13
2017-09-03T02:30:19.729Z,6.87
2017-09-03T02:32:46.441Z,6.90
2017-09-03T02:35:13.022Z,6.83
2017-09-03T02:37:39.609Z,6.77
2017-09-03T02:40:06.186Z,6.90
2017-09-03T02:42:32.782Z,6.77
2017-09-03T02:44:59.371Z,6.80
2017-09-03T02:47:25.969Z,7.00
2017-09-03T02:49:52.558Z,6.67
2017-09-03T02:52:19.262Z,7.10
2017-09-03T02:54:45.909Z,6.80
2017-09-03T02:57:12.506Z,7.00
2017-09-03T02:59:39.092Z,7.17
2017-09-03T03:02:05.681Z,7.33
2017-09-03T03:04:32.254Z,7.20
2017-09-03T03:06:58.837Z,6.93
2017-09-03T03:09:25.445Z,7.27
2017-09-03T03:11:52.037Z,7.70
2017-09-03T03:14:18.627Z,7.57
2017-09-03T03:16:45.226Z,7.63
2017-09-03T03:19:11.807Z,6.77
2017-09-03T03:21:38.382Z,7.07
2017-09-03T03:24:04.984Z,6.83
2017-09-03T03:26:31.563Z,6.73
2017-09-03T03:28:58.154Z,7.40
2017-09-03T03:31:24.738Z,7.87
2017-09-03T03:33:51.333Z,7.77
2017-09-03T03:36:17.913Z,7.77
2017-09-03T03:38:44.502Z,7.20
2017-09-03T03:41:11.107Z,7.83
2017-09-03T03:43:37.693Z,8.40
2017-09-03T03:46:04.281Z,8.67
2017-09-03T03:48:30.886Z,8.70
2017-09-03T03:50:57.484Z,9.10
2017-09-03T03:53:24.064Z,8.77
2017-09-03T03:55:50.647Z,9.17
2017-09-03T03:58:17.230Z,8.83
2017-09-03T04:00:43.830Z,9.90
2017-09-03T04:03:10.418Z,9.80
2017-09-03T04:05:37.006Z,9.90
2017-09-03T04:08:03.603Z,9.77
2017-09-03T04:10:30.182Z,9.53
2017-09-03T04:12:56.774Z,9.40
2017-09-03T04:15:23.361Z,9.50
2017-09-03T04:17:49.963Z,9.53
2017-09-03T04:20:16.532Z,9.80
2017-09-03T04:22:43.106Z,9.70
2017-09-03T04:25:09.706Z,10.30
2017-09-03T04:27:36.294Z,9.73
2017-09-03T04:30:02.883Z,10.33
2017-09-03T04:32:29.474Z,9.90
2017-09-03T04:34:56.054Z,9.63
2017-09-03T04:37:22.642Z,8.97
2017-09-03T04:39:49.222Z,8.93
2017-09-03T04:42:15.827Z,10.20
2017-09-03T04:44:42.409Z,9.70
2017-09-03T04:47:08.995Z,9.43
2017-09-03T04:49:35.590Z,9.20
2017-09-03T04:52:02.179Z,9.30
2017-09-03T04:54:28.766Z,9.70
2017-09-03T04:56:55.350Z,9.50
2017-09-03T04:59:21.957Z,9.40
2017-09-03T05:01:48.542Z,9.63
2017-09-03T05:04:15.122Z,9.57
2017-09-03T05:06:41.714Z,9.30
2017-09-03T05:09:08.299Z,8.80
2017-09-03T05:11:34.893Z,8.93
2017-09-03T05:14:01.474Z,9.30
2017-09-03T05:16:28.095Z,9.20
2017-09-03T05:18:54.666Z,9.73
2017-09-03T05:21:21.252Z,9.53
2017-09-03T05:23:47.841Z,9.67
2017-09-03T05:26:14.426Z,9.83
2017-09-03T05:28:41.031Z,10.00
2017-09-03T05:31:07.610Z,9.23
2017-09-03T05:33:34.196Z,9.63
2017-09-03T05:36:00.786Z,9.60
2017-09-03T05:38:27.367Z,10.30
2017-09-03T05:40:53.959Z,10.20
2017-09-03T05:43:20.542Z,10.67
2017-09-03T05:45:47.125Z,10.57
2017-09-03T05:48:13.721Z,11.20
2017-09-03T05:50:40.307Z,11.27
2017-09-03T05:53:06.910Z,11.03
2017-09-03T05:55:33.498Z,12.20
2017-09-03T05:58:00.094Z,11.70
2017-09-03T06:00:26.691Z,12.30
2017-09-03T06:02:53.284Z,11.73
2017-09-03T06:05:19.887Z,12.77
2017-09-03T06:07:46.474Z,11.57
2017-09-03T06:10:13.055Z,11.63
2017-09-03T06:12:39.646Z,12.40
2017-09-03T06:15:06.234Z,13.70
2017-09-03T06:17:32.828Z,12.30
2017-09-03T06:19:59.409Z,12.73
2017-09-03T06:22:26.022Z,13.37
2017-09-03T06:24:52.657Z,13.70
2017-09-03T06:27:19.242Z,13.70
2017-09-03T06:29:45.844Z,13.27
2017-09-03T06:32:12.421Z,13.80
2017-09-03T06:34:39.015Z,13.13
2017-09-03T06:37:05.602Z,14.53
2017-09-03T06:39:32.248Z,15.37
2017-09-03T06:41:58.846Z,14.10
2017-09-03T06:44:25.429Z,14.43
2017-09-03T06:46:52.019Z,14.03
2017-09-03T06:49:18.608Z,14.50
2017-09-03T06:51:45.197Z,15.40
2017-09-03T06:54:11.787Z,15.43
2017-09-03T06:56:38.377Z,14.30
2017-09-03T06:59:04.971Z,14.40
2017-09-03T07:01:31.559Z,14.63
2017-09-03T07:03:58.154Z,14.47
2017-09-03T07:06:24.739Z,15.20
2017-09-03T07:08:51.342Z,15.20
2017-09-03T07:11:17.934Z,15.00
2017-09-03T07:13:44.534Z,15.40
2017-09-03T07:16:11.119Z,14.60
2017-09-03T07:18:37.697Z,15.30
2017-09-03T07:21:04.298Z,14.00
2017-09-03T07:23:30.882Z,15.40
2017-09-03T07:25:57.473Z,13.80
2017-09-03T07:28:24.058Z,15.27
2017-09-03T07:30:50.666Z,16.10
2017-09-03T07:33:17.325Z,14.90
2017-09-03T07:35:43.902Z,14.80
2017-09-03T07:38:10.511Z,16.30
2017-09-03T07:40:37.094Z,16.33
2017-09-03T07:43:03.689Z,14.73
2017-09-03T07:45:30.278Z,16.23
2017-09-03T07:47:56.874Z,14.83
2017-09-03T07:50:23.508Z,16.07
2017-09-03T07:52:50.078Z,16.33
2017-09-03T07:55:16.734Z,14.83
2017-09-03T07:57:43.318Z,16.23
2017-09-03T08:00:09.913Z,15.60
2017-09-03T08:02:36.599Z,15.30
2017-09-03T08:05:03.374Z,16.80
2017-09-03T08:07:29.970Z,16.80
2017-09-03T08:09:56.550Z,18.00
2017-09-03T08:12:23.150Z,16.53
2017-09-03T08:14:49.737Z,16.77
2017-09-03T08:17:16.331Z,17.53
2017-09-03T08:19:42.926Z,16.80
2017-09-03T08:22:09.665Z,15.53
2017-09-03T08:24:36.250Z,16.57
2017-09-03T08:27:02.838Z,16.23
2017-09-03T08:29:29.430Z,16.70
2017-09-03T08:31:56.130Z,16.97
2017-09-03T08:34:22.722Z,16.93
2017-09-03T08:36:49.312Z,18.30
2017-09-03T08:39:15.926Z,18.07
2017-09-03T08:41:42.519Z,18.20
2017-09-03T08:44:09.108Z,17.80
2017-09-03T08:46:35.698Z,18.13
2017-09-03T08:49:02.287Z,18.80
2017-09-03T08:51:28.913Z,18.67
2017-09-03T08:53:55.470Z,18.60
2017-09-03T08:56:22.106Z,18.20
2017-09-03T08:58:48.698Z,17.50
2017-09-03T09:01:15.286Z,17.43
2017-09-03T09:03:41.887Z,17.40
2017-09-03T09:06:08.470Z,17.03
2017-09-03T09:08:35.065Z,17.57
2017-09-03T09:11:01.650Z,17.23
2017-09-03T09:13:28.399Z,16.27
2017-09-03T09:15:54.982Z,16.70
2017-09-03T09:18:21.580Z,15.87
2017-09-03T09:20:48.178Z,14.20
2017-09-03T09:23:22.121Z,15.07
2017-09-03T09:25:48.747Z,15.30
2017-09-03T09:28:15.346Z,15.93
2017-09-03T09:30:42.998Z,15.43
2017-09-03T09:33:09.586Z,14.37
2017-09-03T09:35:36.178Z,13.80
2017-09-03T09:38:02.773Z,13.97
2017-09-03T09:40:32.678Z,12.63
2017-09-03T09:42:59.302Z,13.33
2017-09-03T09:45:32.135Z,12.57
2017-09-03T09:47:58.771Z,13.37
2017-09-03T09:50:32.283Z,13.10
2017-09-03T09:53:02.212Z,13.97
2017-09-03T09:55:28.803Z,12.40
2017-09-03T09:57:55.389Z,11.60
2017-09-03T10:00:22.962Z,12.33
2017-09-03T10:02:52.598Z,10.63
2017-09-03T10:05:22.170Z,12.27
2017-09-03T10:07:48.741Z,12.20
2017-09-03T10:10:16.188Z,11.73
2017-09-03T10:12:42.766Z,9.90
2017-09-03T10:15:09.390Z,10.70
2017-09-03T10:17:35.986Z,10.93
2017-09-03T10:20:02.579Z,10.53
2017-09-03T10:22:29.154Z,9.43
2017-09-03T10:24:55.739Z,7.83
2017-09-03T10:27:22.347Z,8.60
2017-09-03T10:29:48.926Z,9.03
2017-09-03T10:32:15.547Z,8.00
2017-09-03T10:34:42.126Z,7.70
2017-09-03T10:37:08.701Z,8.10
2017-09-03T10:39:35.305Z,7.00
2017-09-03T10:42:01.928Z,7.07
2017-09-03T10:44:28.499Z,6.77
2017-09-03T10:46:55.074Z,6.93
2017-09-03T10:49:21.655Z,5.97
2017-09-03T10:51:48.282Z,6.40
2017-09-03T10:54:14.870Z,6.77
2017-09-03T10:56:41.453Z,4.90
2017-09-03T10:59:08.038Z,7.83
2017-09-03T11:01:34.630Z,6.23
2017-09-03T11:04:01.221Z,5.67
2017-09-03T11:06:30.067Z,5.13
2017-09-03T11:08:56.753Z,4.33
2017-09-03T11:11:23.318Z,5.70
2017-09-03T11:13:49.996Z,5.80
2017-09-03T11:16:16.558Z,6.50
2017-09-03T11:18:43.198Z,5.90
2017-09-03T11:21:16.112Z,4.80
2017-09-03T11:23:42.713Z,4.37
2017-09-03T11:26:09.298Z,3.93
2017-09-03T11:28:35.875Z,3.47
2017-09-03T11:31:02.474Z,4.13
2017-09-03T11:33:29.042Z,4.20
2017-09-03T11:36:04.281Z,4.30
2017-09-03T11:38:36.893Z,3.83
2017-09-03T11:41:04.814Z,2.87
2017-09-03T11:43:31.397Z,3.90
2017-09-03T11:45:57.978Z,3.53
2017-09-03T11:48:24.564Z,3.20
2017-09-03T11:50:51.145Z,3.10
2017-09-03T11:53:17.726Z,3.40
2017-09-03T11:55:44.309Z,2.87
2017-09-03T11:58:10.899Z,3.00
2017-09-03T12:00:37.474Z,3.40
2017-09-03T12:03:04.050Z,4.10
2017-09-03T12:05:30.633Z,3.50
2017-09-03T12:07:57.220Z,3.73
2017-09-03T12:10:23.807Z,3.37
2017-09-03T12:12:50.387Z,3.30
2017-09-03T12:15:17.006Z,4.30
2017-09-03T12:17:43.566Z,3.77
2017-09-03T12:20:10.145Z,3.47
2017-09-03T12:22:36.726Z,3.77
2017-09-03T12:25:03.306Z,3.80
2017-09-03T12:27:35.858Z,3.70
2017-09-03T12:30:02.433Z,4.27
2017-09-03T12:32:29.071Z,4.60
2017-09-03T12:34:55.639Z,5.30
2017-09-03T12:37:22.217Z,4.80
2017-09-03T12:39:48.853Z,3.87
2017-09-03T12:42:15.586Z,4.77
2017-09-03T12:44:42.166Z,5.20
2017-09-03T12:47:08.750Z,4.17
2017-09-03T12:49:35.335Z,3.80
2017-09-03T12:52:01.938Z,3.87
2017-09-03T12:54:28.529Z,3.90
2017-09-03T12:56:55.130Z,4.33
2017-09-03T12:59:21.711Z,4.20
2017-09-03T13:01:48.308Z,5.00
2017-09-03T13:04:24.646Z,4.90
2017-09-03T13:06:51.247Z,6.00
2017-09-03T13:09:17.825Z,5.70
2017-09-03T13:11:44.426Z,4.70
2017-09-03T13:14:11.040Z,4.60
2017-09-03T13:16:37.610Z,4.33
2017-09-03T13:19:04.202Z,5.17
2017-09-03T13:21:30.782Z,5.10
2017-09-03T13:23:57.362Z,5.53
2017-09-03T13:26:23.953Z,6.07
2017-09-03T13:28:50.544Z,5.03
2017-09-03T13:31:17.258Z,5.30
2017-09-03T13:33:43.836Z,4.43
2017-09-03T13:36:10.422Z,4.80
2017-09-03T13:38:37.009Z,4.30
2017-09-03T13:41:03.586Z,4.80
2017-09-03T13:43:30.333Z,4.20
2017-09-03T13:45:56.929Z,4.07
2017-09-03T13:48:23.513Z,4.93
2017-09-03T13:50:50.102Z,3.97
2017-09-03T13:53:16.683Z,3.80
2017-09-03T13:55:43.271Z,3.70
2017-09-03T13:58:09.852Z,3.50
2017-09-03T14:00:36.504Z,3.63
2017-09-03T14:03:03.095Z,3.50
2017-09-03T14:05:29.673Z,3.40
2017-09-03T14:07:56.368Z,3.27
2017-09-03T14:10:22.945Z,3.67
2017-09-03T14:12:49.545Z,3.23
2017-09-03T14:15:23.994Z,3.60
2017-09-03T14:17:53.994Z,3.13
2017-09-03T14:20:20.641Z,3.10
2017-09-03T14:22:47.226Z,3.27
2017-09-03T14:25:14.445Z,3.03
2017-09-03T14:27:44.189Z,3.20
2017-09-03T14:30:16.482Z,3.30
2017-09-03T14:32:44.373Z,2.83
2017-09-03T14:35:10.949Z,3.00
2017-09-03T14:37:37.708Z,3.43
2017-09-03T14:40:04.294Z,2.90
2017-09-03T14:42:30.874Z,3.00
2017-09-03T14:44:57.636Z,2.60
2017-09-03T14:47:24.271Z,2.57
2017-09-03T14:49:50.846Z,2.27
2017-09-03T14:52:27.367Z,2.50
2017-09-03T14:54:53.956Z,2.60
2017-09-03T14:57:27.034Z,2.63
2017-09-03T14:59:56.706Z,2.53
2017-09-03T15:02:23.319Z,2.13
2017-09-03T15:04:49.910Z,2.57
2017-09-03T15:07:26.378Z,2.73
2017-09-03T15:09:56.310Z,2.30
2017-09-03T15:12:26.073Z,2.70
2017-09-03T15:14:52.642Z,2.60
2017-09-03T15:17:25.831Z,2.70
2017-09-03T15:19:55.744Z,2.60
2017-09-03T15:22:28.266Z,2.60
2017-09-03T15:24:54.838Z,2.70
2017-09-03T15:27:27.903Z,2.70
2017-09-03T15:29:54.489Z,2.50
2017-09-03T15:32:21.068Z,2.60
2017-09-03T15:34:47.657Z,2.37
2017-09-03T15:37:15.668Z,2.37
2017-09-03T15:39:48.085Z,2.30
2017-09-03T15:42:15.912Z,2.33
2017-09-03T15:44:42.550Z,2.53
2017-09-03T15:47:09.127Z,2.80
2017-09-03T15:49:35.718Z,2.43
2017-09-03T15:52:02.317Z,2.40
2017-09-03T15:54:28.931Z,2.60
2017-09-03T15:56:55.553Z,2.40
2017-09-03T15:59:22.125Z,2.40
2017-09-03T16:01:48.714Z,2.30
2017-09-03T16:04:15.298Z,2.83
2017-09-03T16:06:41.886Z,2.27
2017-09-03T16:09:08.483Z,2.47
2017-09-03T16:11:35.097Z,2.30
2017-09-03T16:14:01.699Z,2.47
2017-09-03T16:16:28.278Z,2.30
2017-09-03T16:18:54.875Z,2.40
2017-09-03T16:21:21.614Z,2.30
2017-09-03T16:23:48.190Z,2.40
2017-09-03T16:26:14.785Z,2.60
2017-09-03T16:28:41.457Z,2.37
2017-09-03T16:31:08.080Z,2.60
2017-09-03T16:33:34.703Z,2.60
2017-09-03T16:36:01.277Z,2.67
2017-09-03T16:38:27.858Z,3.37
2017-09-03T16:40:54.437Z,3.10
2017-09-03T16:43:22.032Z,3.17
2017-09-03T16:45:48.793Z,3.00
2017-09-03T16:48:15.345Z,2.80
2017-09-03T16:50:42.663Z,2.37
2017-09-03T16:53:09.258Z,2.70
2017-09-03T16:55:35.852Z,2.60
2017-09-03T16:58:02.482Z,3.23
2017-09-03T17:00:29.094Z,3.60
2017-09-03T17:02:55.674Z,3.57
2017-09-03T17:05:22.258Z,3.40
2017-09-03T17:07:48.867Z,3.83
2017-09-03T17:10:15.495Z,3.60
2017-09-03T17:12:42.105Z,3.60
2017-09-03T17:15:08.702Z,3.30
2017-09-03T17:17:35.286Z,3.53
2017-09-03T17:20:04.757Z,3.20
2017-09-03T17:22:31.391Z,3.37
2017-09-03T17:24:58.006Z,3.30
2017-09-03T17:27:24.686Z,3.40
2017-09-03T17:29:52.088Z,3.40
2017-09-03T17:32:18.667Z,3.10
2017-09-03T17:34:47.938Z,3.70
2017-09-03T17:37:20.973Z,3.63
2017-09-03T17:39:48.228Z,3.67
2017-09-03T17:42:29.714Z,3.27
2017-09-03T17:44:56.313Z,5.67
2017-09-03T17:47:22.881Z,5.50
2017-09-03T17:49:49.461Z,4.80
2017-09-03T17:52:16.070Z,5.53
2017-09-03T17:54:42.650Z,4.43
2017-09-03T17:57:09.341Z,5.20
2017-09-03T17:59:35.916Z,5.00
2017-09-03T18:02:02.489Z,3.50
2017-09-03T18:04:32.665Z,3.63
2017-09-03T18:06:59.248Z,4.30
2017-09-03T18:09:25.838Z,3.97
2017-09-03T18:11:52.426Z,4.70
2017-09-03T18:14:19.014Z,6.53
2017-09-03T18:16:45.638Z,9.27
2017-09-03T18:19:12.210Z,5.30
2017-09-03T18:21:38.958Z,3.87
2017-09-03T18:24:05.538Z,3.80
2017-09-03T18:26:32.118Z,3.90
2017-09-03T18:28:58.702Z,4.00
2017-09-03T18:31:41.030Z,4.17
2017-09-03T18:34:07.733Z,3.63
2017-09-03T18:36:36.874Z,3.90
2017-09-03T18:39:09.518Z,3.63
2017-09-03T18:41:36.195Z,3.70
2017-09-03T18:44:03.627Z,4.30
2017-09-03T18:46:32.851Z,3.93
2017-09-03T18:48:59.446Z,3.50
2017-09-03T18:51:32.848Z,3.97
2017-09-03T18:54:00.151Z,3.70
2017-09-03T18:56:28.232Z,3.97
2017-09-03T18:59:10.601Z,3.90
2017-09-03T19:01:37.189Z,3.90
2017-09-03T19:04:03.779Z,3.77
2017-09-03T19:06:30.357Z,4.03
2017-09-03T19:08:57.051Z,4.10
2017-09-03T19:11:23.658Z,4.17
2017-09-03T19:13:50.254Z,3.90
2017-09-03T19:16:16.848Z,4.40
2017-09-03T19:18:43.429Z,3.90
2017-09-03T19:21:10.185Z,4.20
2017-09-03T19:23:36.759Z,4.40
2017-09-03T19:26:03.362Z,4.40
2017-09-03T19:28:29.962Z,4.40
2017-09-03T19:30:56.542Z,4.10
2017-09-03T19:33:23.258Z,3.87
2017-09-03T19:35:49.842Z,4.20
2017-09-03T19:38:18.322Z,4.30
2017-09-03T19:40:44.910Z,4.63
2017-09-03T19:43:11.515Z,4.27
2017-09-03T19:45:38.281Z,4.70
2017-09-03T19:48:04.833Z,4.43
2017-09-03T19:50:31.459Z,4.30
2017-09-03T19:52:58.186Z,4.83
2017-09-03T19:55:24.790Z,4.30
2017-09-03T19:57:51.518Z,5.00
2017-09-03T20:00:18.097Z,4.53
2017-09-03T20:02:48.138Z,4.70
2017-09-03T20:05:14.722Z,4.70
2017-09-03T20:07:41.306Z,4.50
2017-09-03T20:10:08.038Z,5.50
2017-09-03T20:12:34.626Z,4.97
2017-09-03T20:15:01.219Z,5.00
2017-09-03T20:17:27.809Z,4.90
2017-09-03T20:19:54.399Z,4.97
2017-09-03T20:22:21.130Z,5.13
2017-09-03T20:24:47.705Z,5.43
2017-09-03T20:27:14.361Z,5.20
2017-09-03T20:29:41.019Z,5.17
2017-09-03T20:32:07.594Z,4.90
2017-09-03T20:34:34.217Z,4.97
2017-09-03T20:37:00.836Z,5.10
2017-09-03T20:39:27.393Z,5.20
2017-09-03T20:41:53.977Z,4.77
2017-09-03T20:44:20.560Z,5.20
2017-09-03T20:46:47.168Z,5.70
2017-09-03T20:49:13.749Z,4.93
2017-09-03T20:51:40.477Z,5.50
2017-09-03T20:54:07.081Z,5.57
2017-09-03T20:56:33.634Z,5.40
2017-09-03T20:59:00.491Z,5.43
2017-09-03T21:01:27.066Z,5.70
2017-09-03T21:03:53.650Z,5.63
2017-09-03T21:06:20.239Z,5.90
2017-09-03T21:08:46.821Z,5.80
2017-09-03T21:11:13.429Z,5.60
2017-09-03T21:13:40.042Z,5.50
2017-09-03T21:16:06.649Z,5.47
2017-09-03T21:18:33.208Z,5.60
2017-09-03T21:20:59.789Z,5.63
2017-09-03T21:23:26.527Z,6.10
2017-09-03T21:25:53.111Z,5.33
2017-09-03T21:28:19.689Z,5.40
2017-09-03T21:30:46.280Z,5.13
2017-09-03T21:33:12.889Z,6.10
2017-09-03T21:35:39.627Z,5.47
2017-09-03T21:38:06.186Z,5.40
2017-09-03T21:40:32.770Z,5.50
2017-09-03T21:42:59.354Z,5.80
2017-09-03T21:45:25.939Z,5.30
2017-09-03T21:47:52.566Z,5.77
2017-09-03T21:50:19.130Z,5.67
2017-09-03T21:52:45.717Z,5.07
2017-09-03T21:55:12.450Z,5.57
2017-09-03T21:57:39.014Z,4.87
2017-09-03T22:00:05.594Z,5.13
2017-09-03T22:02:32.182Z,5.40
2017-09-03T22:04:58.786Z,5.13
2017-09-03T22:07:25.374Z,5.50
2017-09-03T22:09:52.074Z,5.00
2017-09-03T22:12:18.649Z,5.07
2017-09-03T22:14:45.229Z,5.40
2017-09-03T22:17:11.829Z,5.30
2017-09-03T22:19:38.406Z,4.93
2017-09-03T22:22:04.990Z,5.43
2017-09-03T22:24:31.766Z,5.33
2017-09-03T22:26:58.339Z,5.10
2017-09-03T22:29:24.913Z,5.70
2017-09-03T22:31:51.545Z,5.53
2017-09-03T22:34:18.118Z,5.43
2017-09-03T22:36:44.694Z,5.30
2017-09-03T22:39:11.282Z,5.20
2017-09-03T22:41:37.859Z,5.30
2017-09-03T22:44:04.493Z,5.50
2017-09-03T22:46:31.070Z,5.10
2017-09-03T22:48:57.659Z,4.87
2017-09-03T22:51:24.238Z,5.03
2017-09-03T22:53:50.814Z,4.93
2017-09-03T22:56:17.605Z,5.27
2017-09-03T22:58:44.234Z,5.30
2017-09-03T23:01:10.806Z,4.90
2017-09-03T23:03:37.402Z,5.63
2017-09-03T23:06:04.002Z,5.50
2017-09-03T23:08:30.750Z,4.97
2017-09-03T23:10:57.328Z,5.37
2017-09-03T23:13:23.902Z,4.90
2017-09-03T23:15:50.494Z,4.90
2017-09-03T23:18:17.093Z,4.50
2017-09-03T23:20:43.688Z,5.20
2017-09-03T23:23:10.282Z,5.30
2017-09-03T23:25:36.854Z,5.30
2017-09-03T23:28:03.464Z,4.90
2017-09-03T23:30:30.044Z,5.07
2017-09-03T23:32:56.781Z,5.10
2017-09-03T23:35:23.370Z,4.90
2017-09-03T23:37:49.980Z,4.47
2017-09-03T23:40:16.557Z,5.30
2017-09-03T23:42:43.163Z,5.33
2017-09-03T23:45:09.858Z,5.20
2017-09-03T23:47:36.429Z,4.80
2017-09-03T23:50:03.014Z,5.60
2017-09-03T23:52:29.620Z,4.40
2017-09-03T23:54:56.194Z,4.87
2017-09-03T23:57:22.899Z,5.13
2017-09-03T23:59:49.482Z,4.87
